TimePDT,TemperatureF,Dew PointF,Humidity,Sea Level PressureIn,VisibilityMPH,Wind Direction,Wind SpeedMPH,Gust SpeedMPH,PrecipitationIn,Events,Conditions,WindDirDegrees,DateUTC
12:53 AM,39.0,10.0,30,29.96,10.0,WNW,3.5,-,N/A,,Clear,290,2012-10-08 07:53:00
1:53 AM,39.9,10.9,31,29.97,10.0,SSE,4.6,-,N/A,,Clear,150,2012-10-08 08:53:00
2:53 AM,39.9,12.0,32,29.96,10.0,West,3.5,-,N/A,,Clear,270,2012-10-08 09:53:00
3:53 AM,35.1,7.0,31,29.96,10.0,East,6.9,-,N/A,,Clear,100,2012-10-08 10:53:00
4:53 AM,37.0,8.1,30,29.97,10.0,Calm,Calm,-,N/A,,Clear,0,2012-10-08 11:53:00
5:53 AM,30.9,8.1,38,29.99,10.0,SE,4.6,-,N/A,,Clear,140,2012-10-08 12:53:00
6:53 AM,30.0,8.1,40,30.02,10.0,Calm,Calm,-,N/A,,Clear,0,2012-10-08 13:53:00
7:53 AM,36.0,10.0,34,30.02,10.0,North,5.8,-,N/A,,Clear,350,2012-10-08 14:53:00
8:53 AM,48.0,6.1,18,30.00,10.0,Calm,Calm,-,N/A,,Clear,0,2012-10-08 15:53:00
9:53 AM,57.0,10.9,16,29.99,10.0,NE,3.5,-,N/A,,Clear,50,2012-10-08 16:53:00
10:53 AM,63.0,8.1,11,29.98,10.0,Calm,Calm,-,N/A,,Clear,0,2012-10-08 17:53:00
11:53 AM,66.9,8.1,10,29.96,10.0,South,4.6,-,N/A,,Clear,190,2012-10-08 18:53:00
12:53 PM,70.0,3.9,7,29.94,10.0,Variable,3.5,-,N/A,,Clear,0,2012-10-08 19:53:00
1:53 PM,73.9,5.0,7,29.91,10.0,Variable,4.6,-,N/A,,Clear,0,2012-10-08 20:53:00
2:53 PM,75.0,7.0,7,29.88,10.0,Calm,Calm,-,N/A,,Clear,0,2012-10-08 21:53:00
3:53 PM,75.0,8.1,8,29.88,10.0,Calm,Calm,-,N/A,,Clear,0,2012-10-08 22:53:00
4:53 PM,73.9,9.0,8,29.87,10.0,SSW,4.6,-,N/A,,Clear,200,2012-10-08 23:53:00
5:53 PM,72.0,12.9,10,29.87,9.0,East,4.6,-,N/A,,Clear,90,2012-10-09 00:53:00
6:53 PM,62.1,19.0,19,29.90,10.0,ESE,4.6,-,N/A,,Clear,120,2012-10-09 01:53:00
7:53 PM,54.0,10.0,17,29.91,10.0,NW,9.2,-,N/A,,Clear,320,2012-10-09 02:53:00
8:53 PM,48.9,12.9,24,29.90,10.0,SSE,6.9,-,N/A,,Clear,150,2012-10-09 03:53:00
10:53 PM,61.0,27.0,27,29.88,10.0,Variable,4.6,-,N/A,,Clear,0,2012-10-09 05:53:00
11:53 PM,55.9,24.1,29,29.89,10.0,ENE,8.1,-,N/A,,Clear,60,2012-10-09 06:53:00